« ### RJNT log 201710 ### | トップページ | 定点 富山空港 2017/11/8 wed »

2017/11/05

入間航空祭2017【B.I.編】 入間飛行場 2017/11/3 fri

事前の天気予報もなんのその、晴れの特異日文化の日(明治節)。朝からスカッと青空が広がっています。

20171103_rjtj_bi100

昨年と開場時間が変わって、早く基地内へ。飛行場通りで一旦待機して、エプロン前線で再待機。規制線と同時にゆっくり歩いて最前線へと移動でした。

20171103_rjtj_bi101

よって、なぜか最前線確保で、こんなブルーを見ることができました。

20171103_rjtj_bi102

METAR RJTJ 030300Z 01004KT 320V080 9999 FEW030 21/07 Q1013 RMK
1CU030 A2993

20171103_rjtj_bi103

13時前にメンバーが入場

20171103_rjtj_bi104

展示準備が始まります

20171103_rjtj_bi105

まずは、各機敬礼から・・

20171103_rjtj_bi106

予備機は、6番機さんがチェック

METAR RJTJ 030400Z 12003KT 060V220 9999 FEW030 22/06 Q1012 RMK
1CU030 A2991

20171103_rjtj_bi107

各チームそれぞれに開始前のワンショット

20171103_rjtj_bi108

こちらも・・

20171103_rjtj_bi109

グーで、トランプさんと安倍さんみたいに・・

20171103_rjtj_bi110

整列

20171103_rjtj_bi111

ウォークダウンのはじまりー

20171103_rjtj_bi112

よろしく

20171103_rjtj_bi113

乗り込んで・・

20171103_rjtj_bi114

エンジンスタート

20171103_rjtj_bi115

キャノピー・クローズなう

20171103_rjtj_bi116

クリアランスを採って、フィールドアクロはじまりぃ

20171103_rjtj_bi117

20171103_rjtj_bi118

#1 66-5745

20171103_rjtj_bi119

#2 46-5731

20171103_rjtj_bia120

#3 26-5805

20171103_rjtj_bi120

#4 06-5790

20171103_rjtj_bi121

#5 26-5692

20171103_rjtj_bi122

#6 46-5729

20171103_rjtj_bi123

整備小隊長が見送ります

20171103_rjtj_bi124

なーんと、消防車の配置が遅れて、あわてて出動

20171103_rjtj_bi125

RW17へ下っていきます

20171103_rjtj_bi126

ポジションに着いて、スモック

20171103_rjtj_bi127

弱い背風なので、インディビ

20171103_rjtj_bi128

4番機が後を追います

20171103_rjtj_bi129

ダーティーターン

20171103_rjtj_bi130

5番機、6番機がローリング

20171103_rjtj_bi131

ロールオン・テイクオフ

20171103_rjtj_bi132

20171103_rjtj_bi133

ローアングル・キューバン

20171103_rjtj_bi134

ファン・ブレイク

20171103_rjtj_bi135

フォー・ポイント・ロール

20171103_rjtj_bia136

20171103_rjtj_bi136

チェンジ・オーバー・ターン

20171103_rjtj_bi137

20171103_rjtj_bi138

インバーテッド&コンテュニアス・ロール

20171103_rjtj_bi139

20171103_rjtj_bi140

サンライズ

20171103_rjtj_bi141

バーティカル・クライム・ロール

20171103_rjtj_bi142

スロー・ロール

20171103_rjtj_bi143

20171103_rjtj_bi144

20171103_rjtj_bi145

20171103_rjtj_bi146

チェンジ・オーバー・ループ

20171103_rjtj_bi147

ナイフ・エッジ チョット油断してピンポケ

20171103_rjtj_bi148

20171103_rjtj_bi149

20171103_rjtj_bi150

レター・エイト

20171103_rjtj_bi151

オポジット・コンティニュアス・ロール

20171103_rjtj_bi152

20171103_rjtj_bi153

20171103_rjtj_bi154

フォー・シップ・インバート

20171103_rjtj_bi155

20171103_rjtj_bi156

20171103_rjtj_bi157

キューピッド

20171103_rjtj_bi158

20171103_rjtj_bi159

ライン・アブレスト・ロール

20171103_rjtj_bi160

20171103_rjtj_bi161

スリー・シックスティー&ループ

20171103_rjtj_bi162

20171103_rjtj_bi163

20171103_rjtj_bi164

ワイド・トゥ・デルタ・ループ

20171103_rjtj_bi165

20171103_rjtj_bi166

20171103_rjtj_bi167

20171103_rjtj_bi168

20171103_rjtj_bi169

フェニックス・ループ

20171103_rjtj_bi170

20171103_rjtj_bi171

20171103_rjtj_bi172

ボントン・ロール

20171103_rjtj_bi173

20171103_rjtj_bi174

20171103_rjtj_bi175

20171103_rjtj_bi176

スター&クロス

20171103_rjtj_bi177

METAR RJTJ 030500Z 09003KT 020V160 9999 FEW030 23/07 Q1012 RMK
1CU030 A2989

20171103_rjtj_bi178

20171103_rjtj_bi179

20171103_rjtj_bi180

20171103_rjtj_bi181

タック・クロスI

20171103_rjtj_bi182

20171103_rjtj_bi183

20171103_rjtj_bi184

ローリング・コンバット・ピッチ

20171103_rjtj_bi185

20171103_rjtj_bi186

20171103_rjtj_bi187

20171103_rjtj_bi188

コーク・スクリュー

20171103_rjtj_bi189

20171103_rjtj_bi190

20171103_rjtj_bi191

20171103_rjtj_bi192

20171103_rjtj_bi193

20171103_rjtj_bi194

全機着陸

20171103_rjtj_bi195

整備員が配置につきます

20171103_rjtj_bi196

20171103_rjtj_bi197

20171103_rjtj_bi198

20171103_rjtj_bi199

20171103_rjtj_bi200

20171103_rjtj_bi201_2

20171103_rjtj_bi202

20171103_rjtj_bi203

20171103_rjtj_bi204

エンジン・シャットダウン

20171103_rjtj_bi205

キャノピー・オープン

20171103_rjtj_bi206_2

20171103_rjtj_bi207

20171103_rjtj_bi208_2

ウォークバックして、敬礼

20171103_rjtj_bi209_2

お疲れさん

20171103_rjtj_bi210_2

綺麗どころから、花束贈呈へ

20171103_rjtj_bi211

みんなニコニコで、お手振り。ありがとうございました。

20171103_rjtj_bi212

すかさず、帰投ショーが始まります。

素晴らしい空模様に素晴らしい飛行模様で満足でした。

|

« ### RJNT log 201710 ### | トップページ | 定点 富山空港 2017/11/8 wed »

BI」カテゴリの記事

入間飛行場」カテゴリの記事

コメント

コメントを書く



(ウェブ上には掲載しません)


コメントは記事投稿者が公開するまで表示されません。



トラックバック


この記事へのトラックバック一覧です: 入間航空祭2017【B.I.編】 入間飛行場 2017/11/3 fri:

« ### RJNT log 201710 ### | トップページ | 定点 富山空港 2017/11/8 wed »